sensor_id;sensor_type;location;lat;lon;timestamp;P1;durP1;ratioP1;P2;durP2;ratioP2
65572;SDS011;52214;50.940;13.996;2023-04-01T00:01:46;3.40;;;1.53;;
65572;SDS011;52214;50.940;13.996;2023-04-01T00:04:12;3.92;;;1.40;;
65572;SDS011;52214;50.940;13.996;2023-04-01T00:06:37;3.47;;;1.60;;
65572;SDS011;52214;50.940;13.996;2023-04-01T00:09:03;4.10;;;1.80;;
65572;SDS011;52214;50.940;13.996;2023-04-01T00:11:29;3.80;;;1.77;;
65572;SDS011;52214;50.940;13.996;2023-04-01T00:13:55;3.70;;;1.48;;
65572;SDS011;52214;50.940;13.996;2023-04-01T00:16:22;3.72;;;1.55;;
65572;SDS011;52214;50.940;13.996;2023-04-01T00:18:51;4.03;;;1.70;;
65572;SDS011;52214;50.940;13.996;2023-04-01T00:21:17;4.05;;;1.80;;
65572;SDS011;52214;50.940;13.996;2023-04-01T00:23:43;4.00;;;1.80;;
65572;SDS011;52214;50.940;13.996;2023-04-01T00:26:09;5.15;;;1.73;;
65572;SDS011;52214;50.940;13.996;2023-04-01T00:28:35;3.70;;;1.70;;
65572;SDS011;52214;50.940;13.996;2023-04-01T00:31:05;4.68;;;1.80;;
65572;SDS011;52214;50.940;13.996;2023-04-01T00:33:32;4.30;;;1.63;;
65572;SDS011;52214;50.940;13.996;2023-04-01T00:36:07;4.60;;;1.80;;
65572;SDS011;52214;50.940;13.996;2023-04-01T00:38:35;4.47;;;1.90;;
65572;SDS011;52214;50.940;13.996;2023-04-01T00:41:02;4.07;;;1.73;;
65572;SDS011;52214;50.940;13.996;2023-04-01T00:43:28;4.20;;;1.90;;
65572;SDS011;52214;50.940;13.996;2023-04-01T00:45:54;3.17;;;1.50;;
65572;SDS011;52214;50.940;13.996;2023-04-01T00:48:21;4.37;;;1.70;;
65572;SDS011;52214;50.940;13.996;2023-04-01T00:50:52;4.47;;;1.80;;
65572;SDS011;52214;50.940;13.996;2023-04-01T00:53:23;3.47;;;1.70;;
65572;SDS011;52214;50.940;13.996;2023-04-01T00:55:50;4.05;;;1.60;;
65572;SDS011;52214;50.940;13.996;2023-04-01T00:58:21;3.53;;;1.63;;
65572;SDS011;52214;50.940;13.996;2023-04-01T01:00:49;5.30;;;1.88;;
65572;SDS011;52214;50.940;13.996;2023-04-01T01:03:16;4.32;;;1.77;;
65572;SDS011;52214;50.940;13.996;2023-04-01T01:14:08;3.83;;;1.60;;
65572;SDS011;52214;50.940;13.996;2023-04-01T01:16:44;4.60;;;1.70;;
65572;SDS011;52214;50.940;13.996;2023-04-01T01:29:45;4.25;;;1.63;;
65572;SDS011;52214;50.940;13.996;2023-04-01T01:32:31;5.30;;;1.98;;
65572;SDS011;52214;50.940;13.996;2023-04-01T01:35:24;3.60;;;1.57;;
65572;SDS011;52214;50.940;13.996;2023-04-01T01:37:58;3.33;;;1.35;;
65572;SDS011;52214;50.940;13.996;2023-04-01T01:40:27;4.38;;;1.70;;
65572;SDS011;52214;50.940;13.996;2023-04-01T01:42:56;3.72;;;1.50;;
65572;SDS011;52214;50.940;13.996;2023-04-01T01:45:26;4.15;;;1.80;;
65572;SDS011;52214;50.940;13.996;2023-04-01T01:47:52;3.73;;;1.80;;
65572;SDS011;52214;50.940;13.996;2023-04-01T01:50:23;3.70;;;1.60;;
65572;SDS011;52214;50.940;13.996;2023-04-01T01:52:51;3.97;;;1.83;;
65572;SDS011;52214;50.940;13.996;2023-04-01T01:55:29;4.18;;;1.63;;
65572;SDS011;52214;50.940;13.996;2023-04-01T01:57:59;5.63;;;1.70;;
65572;SDS011;52214;50.940;13.996;2023-04-01T02:00:30;4.17;;;1.80;;
65572;SDS011;52214;50.940;13.996;2023-04-01T02:02:57;4.15;;;1.60;;
65572;SDS011;52214;50.940;13.996;2023-04-01T02:05:24;3.88;;;1.70;;
65572;SDS011;52214;50.940;13.996;2023-04-01T02:07:55;3.70;;;1.75;;
65572;SDS011;52214;50.940;13.996;2023-04-01T02:10:26;3.45;;;1.50;;
65572;SDS011;52214;50.940;13.996;2023-04-01T02:12:58;3.93;;;1.60;;
65572;SDS011;52214;50.940;13.996;2023-04-01T02:15:27;4.05;;;1.67;;
65572;SDS011;52214;50.940;13.996;2023-04-01T02:17:56;4.15;;;1.70;;
65572;SDS011;52214;50.940;13.996;2023-04-01T02:20:23;3.75;;;1.48;;
65572;SDS011;52214;50.940;13.996;2023-04-01T02:22:51;3.40;;;1.55;;
65572;SDS011;52214;50.940;13.996;2023-04-01T02:25:21;4.43;;;1.87;;
65572;SDS011;52214;50.940;13.996;2023-04-01T02:27:52;4.50;;;1.70;;
65572;SDS011;52214;50.940;13.996;2023-04-01T02:30:20;4.22;;;1.88;;
65572;SDS011;52214;50.940;13.996;2023-04-01T02:32:49;4.88;;;1.80;;
65572;SDS011;52214;50.940;13.996;2023-04-01T02:35:15;4.60;;;2.25;;
65572;SDS011;52214;50.940;13.996;2023-04-01T02:37:43;3.50;;;1.73;;
65572;SDS011;52214;50.940;13.996;2023-04-01T02:40:12;3.80;;;1.70;;
65572;SDS011;52214;50.940;13.996;2023-04-01T02:42:38;3.72;;;1.67;;
65572;SDS011;52214;50.940;13.996;2023-04-01T02:45:08;3.72;;;1.70;;
65572;SDS011;52214;50.940;13.996;2023-04-01T02:47:34;5.15;;;1.80;;
65572;SDS011;52214;50.940;13.996;2023-04-01T02:50:00;3.92;;;1.80;;
65572;SDS011;52214;50.940;13.996;2023-04-01T02:52:26;4.03;;;1.70;;
65572;SDS011;52214;50.940;13.996;2023-04-01T02:54:53;4.15;;;1.58;;
65572;SDS011;52214;50.940;13.996;2023-04-01T02:57:20;4.95;;;1.90;;
65572;SDS011;52214;50.940;13.996;2023-04-01T02:59:46;4.20;;;1.60;;
65572;SDS011;52214;50.940;13.996;2023-04-01T03:02:12;4.07;;;1.70;;
65572;SDS011;52214;50.940;13.996;2023-04-01T03:04:37;3.88;;;1.63;;
65572;SDS011;52214;50.940;13.996;2023-04-01T03:07:03;3.87;;;1.70;;
65572;SDS011;52214;50.940;13.996;2023-04-01T03:09:29;4.35;;;1.73;;
65572;SDS011;52214;50.940;13.996;2023-04-01T03:11:55;4.32;;;1.65;;
65572;SDS011;52214;50.940;13.996;2023-04-01T03:14:21;4.37;;;1.90;;
65572;SDS011;52214;50.940;13.996;2023-04-01T03:16:46;5.25;;;1.80;;
65572;SDS011;52214;50.940;13.996;2023-04-01T03:19:12;3.53;;;1.83;;
65572;SDS011;52214;50.940;13.996;2023-04-01T03:21:38;6.37;;;1.90;;
65572;SDS011;52214;50.940;13.996;2023-04-01T03:24:05;5.22;;;1.90;;
65572;SDS011;52214;50.940;13.996;2023-04-01T03:26:31;4.43;;;1.75;;
65572;SDS011;52214;50.940;13.996;2023-04-01T03:28:57;4.50;;;1.77;;
65572;SDS011;52214;50.940;13.996;2023-04-01T03:31:22;4.80;;;1.60;;
65572;SDS011;52214;50.940;13.996;2023-04-01T03:33:48;4.00;;;1.90;;
65572;SDS011;52214;50.940;13.996;2023-04-01T03:36:14;3.97;;;1.58;;
65572;SDS011;52214;50.940;13.996;2023-04-01T03:38:40;4.35;;;1.77;;
65572;SDS011;52214;50.940;13.996;2023-04-01T03:41:06;3.67;;;1.80;;
65572;SDS011;52214;50.940;13.996;2023-04-01T03:43:32;3.67;;;1.75;;
65572;SDS011;52214;50.940;13.996;2023-04-01T03:45:58;3.40;;;1.52;;
65572;SDS011;52214;50.940;13.996;2023-04-01T03:48:25;4.30;;;1.90;;
65572;SDS011;52214;50.940;13.996;2023-04-01T03:50:51;4.60;;;1.80;;
65572;SDS011;52214;50.940;13.996;2023-04-01T03:53:17;4.70;;;1.90;;
65572;SDS011;52214;50.940;13.996;2023-04-01T03:55:43;4.65;;;1.90;;
65572;SDS011;52214;50.940;13.996;2023-04-01T03:58:09;4.47;;;1.83;;
65572;SDS011;52214;50.940;13.996;2023-04-01T04:00:35;5.13;;;1.80;;
65572;SDS011;52214;50.940;13.996;2023-04-01T04:03:01;5.32;;;1.77;;
65572;SDS011;52214;50.940;13.996;2023-04-01T04:05:27;3.70;;;1.90;;
65572;SDS011;52214;50.940;13.996;2023-04-01T04:07:53;4.00;;;1.90;;
65572;SDS011;52214;50.940;13.996;2023-04-01T04:10:20;3.42;;;1.63;;
65572;SDS011;52214;50.940;13.996;2023-04-01T04:12:48;4.78;;;1.98;;
65572;SDS011;52214;50.940;13.996;2023-04-01T04:15:15;4.28;;;1.63;;
65572;SDS011;52214;50.940;13.996;2023-04-01T04:17:44;3.67;;;1.80;;
65572;SDS011;52214;50.940;13.996;2023-04-01T04:20:10;4.45;;;1.65;;
65572;SDS011;52214;50.940;13.996;2023-04-01T04:22:36;4.50;;;1.80;;
65572;SDS011;52214;50.940;13.996;2023-04-01T04:25:02;3.80;;;1.60;;
65572;SDS011;52214;50.940;13.996;2023-04-01T04:27:27;4.37;;;1.87;;
65572;SDS011;52214;50.940;13.996;2023-04-01T04:29:53;4.20;;;1.80;;
65572;SDS011;52214;50.940;13.996;2023-04-01T04:32:19;3.87;;;1.93;;
65572;SDS011;52214;50.940;13.996;2023-04-01T04:34:44;4.53;;;1.98;;
65572;SDS011;52214;50.940;13.996;2023-04-01T04:37:10;3.63;;;1.93;;
65572;SDS011;52214;50.940;13.996;2023-04-01T04:39:35;4.63;;;1.90;;
65572;SDS011;52214;50.940;13.996;2023-04-01T04:42:02;4.00;;;1.75;;
65572;SDS011;52214;50.940;13.996;2023-04-01T04:44:27;4.45;;;1.85;;
65572;SDS011;52214;50.940;13.996;2023-04-01T04:46:53;4.15;;;2.10;;
65572;SDS011;52214;50.940;13.996;2023-04-01T04:49:19;4.93;;;2.20;;
65572;SDS011;52214;50.940;13.996;2023-04-01T04:51:44;3.88;;;1.70;;
65572;SDS011;52214;50.940;13.996;2023-04-01T04:54:10;4.50;;;1.80;;
65572;SDS011;52214;50.940;13.996;2023-04-01T04:56:36;4.68;;;2.00;;
65572;SDS011;52214;50.940;13.996;2023-04-01T04:59:02;3.90;;;1.80;;
65572;SDS011;52214;50.940;13.996;2023-04-01T05:01:27;4.38;;;1.92;;
65572;SDS011;52214;50.940;13.996;2023-04-01T05:03:53;3.87;;;1.93;;
65572;SDS011;52214;50.940;13.996;2023-04-01T05:06:19;6.57;;;2.10;;
65572;SDS011;52214;50.940;13.996;2023-04-01T05:08:45;5.67;;;2.10;;
65572;SDS011;52214;50.940;13.996;2023-04-01T05:11:12;5.22;;;2.10;;
65572;SDS011;52214;50.940;13.996;2023-04-01T05:13:40;5.37;;;2.13;;
65572;SDS011;52214;50.940;13.996;2023-04-01T05:16:09;5.10;;;2.20;;
65572;SDS011;52214;50.940;13.996;2023-04-01T05:18:36;4.03;;;1.90;;
65572;SDS011;52214;50.940;13.996;2023-04-01T05:21:01;3.90;;;1.83;;
65572;SDS011;52214;50.940;13.996;2023-04-01T05:23:27;3.85;;;1.80;;
65572;SDS011;52214;50.940;13.996;2023-04-01T05:25:52;4.47;;;2.13;;
65572;SDS011;52214;50.940;13.996;2023-04-01T05:28:19;4.15;;;1.90;;
65572;SDS011;52214;50.940;13.996;2023-04-01T05:30:45;4.90;;;1.97;;
65572;SDS011;52214;50.940;13.996;2023-04-01T05:33:11;5.30;;;2.10;;
65572;SDS011;52214;50.940;13.996;2023-04-01T05:35:38;4.40;;;1.90;;
65572;SDS011;52214;50.940;13.996;2023-04-01T05:38:05;4.32;;;1.75;;
65572;SDS011;52214;50.940;13.996;2023-04-01T05:40:31;4.00;;;2.08;;
65572;SDS011;52214;50.940;13.996;2023-04-01T05:42:58;3.83;;;1.57;;
65572;SDS011;52214;50.940;13.996;2023-04-01T05:45:25;4.15;;;1.85;;
65572;SDS011;52214;50.940;13.996;2023-04-01T05:47:51;4.40;;;1.88;;
65572;SDS011;52214;50.940;13.996;2023-04-01T05:50:17;4.33;;;2.00;;
65572;SDS011;52214;50.940;13.996;2023-04-01T05:52:43;4.15;;;2.00;;
65572;SDS011;52214;50.940;13.996;2023-04-01T05:55:10;4.50;;;1.98;;
65572;SDS011;52214;50.940;13.996;2023-04-01T05:57:36;4.53;;;1.83;;
65572;SDS011;52214;50.940;13.996;2023-04-01T06:00:02;4.03;;;1.87;;
65572;SDS011;52214;50.940;13.996;2023-04-01T06:02:29;4.82;;;1.90;;
65572;SDS011;52214;50.940;13.996;2023-04-01T06:05:01;4.47;;;2.07;;
65572;SDS011;52214;50.940;13.996;2023-04-01T06:07:35;3.42;;;1.67;;
65572;SDS011;52214;50.940;13.996;2023-04-01T06:10:00;4.73;;;1.83;;
65572;SDS011;52214;50.940;13.996;2023-04-01T06:12:32;5.57;;;2.17;;
65572;SDS011;52214;50.940;13.996;2023-04-01T06:15:15;5.97;;;2.10;;
65572;SDS011;52214;50.940;13.996;2023-04-01T06:17:51;3.60;;;1.65;;
65572;SDS011;52214;50.940;13.996;2023-04-01T06:20:32;4.18;;;1.90;;
65572;SDS011;52214;50.940;13.996;2023-04-01T06:23:15;4.30;;;1.80;;
65572;SDS011;52214;50.940;13.996;2023-04-01T06:26:00;4.10;;;2.10;;
65572;SDS011;52214;50.940;13.996;2023-04-01T06:37:23;4.15;;;1.80;;
65572;SDS011;52214;50.940;13.996;2023-04-01T06:48:22;4.20;;;1.95;;
65572;SDS011;52214;50.940;13.996;2023-04-01T06:54:09;4.20;;;1.77;;
65572;SDS011;52214;50.940;13.996;2023-04-01T06:56:42;4.45;;;2.00;;
65572;SDS011;52214;50.940;13.996;2023-04-01T06:59:13;4.43;;;1.80;;
65572;SDS011;52214;50.940;13.996;2023-04-01T07:01:42;5.50;;;1.80;;
65572;SDS011;52214;50.940;13.996;2023-04-01T07:04:15;3.88;;;1.80;;
65572;SDS011;52214;50.940;13.996;2023-04-01T07:06:47;4.50;;;2.00;;
65572;SDS011;52214;50.940;13.996;2023-04-01T07:09:19;4.82;;;2.00;;
65572;SDS011;52214;50.940;13.996;2023-04-01T07:11:49;5.55;;;1.75;;
65572;SDS011;52214;50.940;13.996;2023-04-01T07:14:27;3.78;;;1.92;;
65572;SDS011;52214;50.940;13.996;2023-04-01T07:27:27;4.57;;;1.70;;
65572;SDS011;52214;50.940;13.996;2023-04-01T07:29:55;4.00;;;1.83;;
65572;SDS011;52214;50.940;13.996;2023-04-01T07:32:32;4.10;;;1.90;;
65572;SDS011;52214;50.940;13.996;2023-04-01T07:43:17;4.43;;;1.85;;
65572;SDS011;52214;50.940;13.996;2023-04-01T07:53:50;5.25;;;1.90;;
65572;SDS011;52214;50.940;13.996;2023-04-01T07:56:30;4.35;;;1.90;;
65572;SDS011;52214;50.940;13.996;2023-04-01T07:59:22;4.33;;;2.03;;
65572;SDS011;52214;50.940;13.996;2023-04-01T08:23:57;3.83;;;1.85;;
65572;SDS011;52214;50.940;13.996;2023-04-01T08:26:39;3.87;;;1.67;;
65572;SDS011;52214;50.940;13.996;2023-04-01T08:31:54;3.67;;;1.67;;
65572;SDS011;52214;50.940;13.996;2023-04-01T08:34:24;4.22;;;2.08;;
65572;SDS011;52214;50.940;13.996;2023-04-01T08:36:58;4.70;;;2.05;;
65572;SDS011;52214;50.940;13.996;2023-04-01T08:39:29;4.80;;;2.00;;
65572;SDS011;52214;50.940;13.996;2023-04-01T08:42:04;3.55;;;1.70;;
65572;SDS011;52214;50.940;13.996;2023-04-01T08:52:59;4.20;;;1.90;;
65572;SDS011;52214;50.940;13.996;2023-04-01T08:55:36;3.78;;;1.85;;
65572;SDS011;52214;50.940;13.996;2023-04-01T09:11:40;3.70;;;1.80;;
65572;SDS011;52214;50.940;13.996;2023-04-01T09:25:23;4.53;;;2.00;;
65572;SDS011;52214;50.940;13.996;2023-04-01T09:30:48;5.05;;;1.98;;
65572;SDS011;52214;50.940;13.996;2023-04-01T09:33:38;4.55;;;2.00;;
65572;SDS011;52214;50.940;13.996;2023-04-01T09:44:20;4.20;;;2.10;;
65572;SDS011;52214;50.940;13.996;2023-04-01T09:58:04;4.43;;;1.65;;
65572;SDS011;52214;50.940;13.996;2023-04-01T10:43:05;3.93;;;1.90;;
65572;SDS011;52214;50.940;13.996;2023-04-01T10:53:42;3.67;;;1.70;;
65572;SDS011;52214;50.940;13.996;2023-04-01T11:13:37;5.30;;;1.98;;
65572;SDS011;52214;50.940;13.996;2023-04-01T11:19:27;6.22;;;2.10;;
65572;SDS011;52214;50.940;13.996;2023-04-01T11:33:18;3.80;;;1.55;;
65572;SDS011;52214;50.940;13.996;2023-04-01T11:38:49;4.13;;;1.50;;
65572;SDS011;52214;50.940;13.996;2023-04-01T11:50:20;4.73;;;1.90;;
65572;SDS011;52214;50.940;13.996;2023-04-01T11:52:53;4.65;;;1.77;;
65572;SDS011;52214;50.940;13.996;2023-04-01T11:55:46;4.13;;;1.80;;
65572;SDS011;52214;50.940;13.996;2023-04-01T12:17:50;4.30;;;1.60;;
65572;SDS011;52214;50.940;13.996;2023-04-01T12:32:15;4.90;;;1.87;;
65572;SDS011;52214;50.940;13.996;2023-04-01T12:34:48;4.38;;;1.90;;
65572;SDS011;52214;50.940;13.996;2023-04-01T12:54:25;4.10;;;1.80;;
65572;SDS011;52214;50.940;13.996;2023-04-01T13:22:27;3.83;;;1.83;;
65572;SDS011;52214;50.940;13.996;2023-04-01T13:25:22;4.22;;;1.90;;
65572;SDS011;52214;50.940;13.996;2023-04-01T13:28:06;4.33;;;1.80;;
65572;SDS011;52214;50.940;13.996;2023-04-01T13:30:59;3.95;;;1.73;;
65572;SDS011;52214;50.940;13.996;2023-04-01T13:33:37;4.53;;;2.00;;
65572;SDS011;52214;50.940;13.996;2023-04-01T13:36:16;4.07;;;1.80;;
65572;SDS011;52214;50.940;13.996;2023-04-01T13:45:00;4.25;;;1.83;;
65572;SDS011;52214;50.940;13.996;2023-04-01T13:50:30;5.40;;;1.90;;
65572;SDS011;52214;50.940;13.996;2023-04-01T13:53:09;5.70;;;2.20;;
65572;SDS011;52214;50.940;13.996;2023-04-01T13:58:43;3.53;;;1.70;;
65572;SDS011;52214;50.940;13.996;2023-04-01T14:01:24;5.88;;;1.92;;
65572;SDS011;52214;50.940;13.996;2023-04-01T14:15:41;4.53;;;2.03;;
65572;SDS011;52214;50.940;13.996;2023-04-01T14:18:42;3.78;;;1.80;;
65572;SDS011;52214;50.940;13.996;2023-04-01T14:32:32;4.00;;;1.90;;
65572;SDS011;52214;50.940;13.996;2023-04-01T14:38:02;3.53;;;1.60;;
65572;SDS011;52214;50.940;13.996;2023-04-01T14:40:47;4.45;;;2.00;;
65572;SDS011;52214;50.940;13.996;2023-04-01T14:43:25;4.68;;;1.90;;
65572;SDS011;52214;50.940;13.996;2023-04-01T14:46:19;4.38;;;1.98;;
65572;SDS011;52214;50.940;13.996;2023-04-01T14:48:57;5.20;;;2.08;;
65572;SDS011;52214;50.940;13.996;2023-04-01T14:51:31;4.00;;;1.80;;
65572;SDS011;52214;50.940;13.996;2023-04-01T15:02:32;4.65;;;2.03;;
65572;SDS011;52214;50.940;13.996;2023-04-01T15:19:19;4.50;;;1.90;;
65572;SDS011;52214;50.940;13.996;2023-04-01T15:27:17;5.05;;;1.92;;
65572;SDS011;52214;50.940;13.996;2023-04-01T15:29:51;3.60;;;1.70;;
65572;SDS011;52214;50.940;13.996;2023-04-01T15:32:39;5.17;;;2.03;;
65572;SDS011;52214;50.940;13.996;2023-04-01T15:35:21;4.38;;;2.00;;
65572;SDS011;52214;50.940;13.996;2023-04-01T15:38:05;3.80;;;1.85;;
65572;SDS011;52214;50.940;13.996;2023-04-01T15:40:53;4.50;;;2.05;;
65572;SDS011;52214;50.940;13.996;2023-04-01T15:43:36;6.07;;;2.15;;
65572;SDS011;52214;50.940;13.996;2023-04-01T15:49:19;4.90;;;2.15;;
65572;SDS011;52214;50.940;13.996;2023-04-01T15:52:09;4.72;;;2.00;;
65572;SDS011;52214;50.940;13.996;2023-04-01T15:57:32;3.90;;;2.10;;
65572;SDS011;52214;50.940;13.996;2023-04-01T16:00:13;4.43;;;2.10;;
65572;SDS011;52214;50.940;13.996;2023-04-01T16:08:48;4.18;;;1.92;;
65572;SDS011;52214;50.940;13.996;2023-04-01T16:11:36;4.38;;;1.85;;
65572;SDS011;52214;50.940;13.996;2023-04-01T16:14:25;4.30;;;1.90;;
65572;SDS011;52214;50.940;13.996;2023-04-01T16:16:57;5.30;;;1.92;;
65572;SDS011;52214;50.940;13.996;2023-04-01T16:19:32;4.28;;;2.10;;
65572;SDS011;52214;50.940;13.996;2023-04-01T16:22:07;4.28;;;1.92;;
65572;SDS011;52214;50.940;13.996;2023-04-01T16:24:40;4.93;;;2.10;;
65572;SDS011;52214;50.940;13.996;2023-04-01T16:43:55;5.53;;;2.00;;
65572;SDS011;52214;50.940;13.996;2023-04-01T16:46:28;3.67;;;1.70;;
65572;SDS011;52214;50.940;13.996;2023-04-01T16:51:57;4.13;;;1.70;;
65572;SDS011;52214;50.940;13.996;2023-04-01T16:54:29;4.17;;;1.90;;
65572;SDS011;52214;50.940;13.996;2023-04-01T16:57:02;4.30;;;2.10;;
65572;SDS011;52214;50.940;13.996;2023-04-01T17:07:40;4.53;;;1.90;;
65572;SDS011;52214;50.940;13.996;2023-04-01T17:10:37;4.80;;;1.95;;
65572;SDS011;52214;50.940;13.996;2023-04-01T17:18:42;4.70;;;2.00;;
65572;SDS011;52214;50.940;13.996;2023-04-01T17:21:16;4.80;;;2.00;;
65572;SDS011;52214;50.940;13.996;2023-04-01T17:23:53;4.78;;;1.95;;
65572;SDS011;52214;50.940;13.996;2023-04-01T17:26:36;5.18;;;1.90;;
65572;SDS011;52214;50.940;13.996;2023-04-01T17:29:12;3.92;;;1.80;;
65572;SDS011;52214;50.940;13.996;2023-04-01T17:32:07;4.78;;;1.95;;
65572;SDS011;52214;50.940;13.996;2023-04-01T17:40:20;4.47;;;2.10;;
65572;SDS011;52214;50.940;13.996;2023-04-01T17:43:03;4.20;;;1.98;;
65572;SDS011;52214;50.940;13.996;2023-04-01T17:45:56;4.38;;;2.00;;
65572;SDS011;52214;50.940;13.996;2023-04-01T17:48:34;4.93;;;2.33;;
65572;SDS011;52214;50.940;13.996;2023-04-01T17:51:17;4.18;;;1.70;;
65572;SDS011;52214;50.940;13.996;2023-04-01T18:15:46;4.05;;;1.70;;
65572;SDS011;52214;50.940;13.996;2023-04-01T18:18:32;4.03;;;2.00;;
65572;SDS011;52214;50.940;13.996;2023-04-01T18:21:12;3.27;;;1.47;;
65572;SDS011;52214;50.940;13.996;2023-04-01T18:29:24;4.25;;;1.65;;
65572;SDS011;52214;50.940;13.996;2023-04-01T18:32:21;4.15;;;1.73;;
65572;SDS011;52214;50.940;13.996;2023-04-01T18:34:58;4.77;;;1.80;;
65572;SDS011;52214;50.940;13.996;2023-04-01T18:37:39;3.72;;;1.70;;
65572;SDS011;52214;50.940;13.996;2023-04-01T18:51:20;3.97;;;1.50;;
65572;SDS011;52214;50.940;13.996;2023-04-01T18:53:54;3.87;;;1.80;;
65572;SDS011;52214;50.940;13.996;2023-04-01T18:56:25;3.85;;;1.50;;
65572;SDS011;52214;50.940;13.996;2023-04-01T18:59:16;3.92;;;1.70;;
65572;SDS011;52214;50.940;13.996;2023-04-01T19:15:21;4.88;;;1.90;;
65572;SDS011;52214;50.940;13.996;2023-04-01T19:18:03;4.18;;;1.40;;
65572;SDS011;52214;50.940;13.996;2023-04-01T19:26:00;3.55;;;1.50;;
65572;SDS011;52214;50.940;13.996;2023-04-01T19:28:42;3.87;;;1.73;;
65572;SDS011;52214;50.940;13.996;2023-04-01T19:31:28;3.85;;;1.60;;
65572;SDS011;52214;50.940;13.996;2023-04-01T19:42:41;3.77;;;1.60;;
65572;SDS011;52214;50.940;13.996;2023-04-01T19:45:22;3.78;;;1.60;;
65572;SDS011;52214;50.940;13.996;2023-04-01T19:48:10;4.03;;;1.50;;
65572;SDS011;52214;50.940;13.996;2023-04-01T20:22:59;3.63;;;1.55;;
65572;SDS011;52214;50.940;13.996;2023-04-01T20:25:46;3.13;;;1.30;;
65572;SDS011;52214;50.940;13.996;2023-04-01T20:28:23;3.72;;;1.58;;
65572;SDS011;52214;50.940;13.996;2023-04-01T20:36:39;3.60;;;1.40;;
65572;SDS011;52214;50.940;13.996;2023-04-01T20:39:26;4.13;;;1.60;;
65572;SDS011;52214;50.940;13.996;2023-04-01T20:42:14;3.40;;;1.40;;
65572;SDS011;52214;50.940;13.996;2023-04-01T20:53:18;3.67;;;1.40;;
65572;SDS011;52214;50.940;13.996;2023-04-01T20:58:58;4.55;;;1.70;;
65572;SDS011;52214;50.940;13.996;2023-04-01T21:12:47;3.50;;;1.27;;
65572;SDS011;52214;50.940;13.996;2023-04-01T21:15:25;3.95;;;1.52;;
65572;SDS011;52214;50.940;13.996;2023-04-01T21:18:02;4.35;;;1.50;;
65572;SDS011;52214;50.940;13.996;2023-04-01T21:20:43;4.47;;;1.63;;
65572;SDS011;52214;50.940;13.996;2023-04-01T21:29:39;3.83;;;1.40;;
65572;SDS011;52214;50.940;13.996;2023-04-01T21:32:19;4.25;;;1.42;;
65572;SDS011;52214;50.940;13.996;2023-04-01T21:46:25;3.42;;;1.48;;
65572;SDS011;52214;50.940;13.996;2023-04-01T21:54:47;3.38;;;1.38;;
65572;SDS011;52214;50.940;13.996;2023-04-01T21:57:36;4.97;;;1.40;;
65572;SDS011;52214;50.940;13.996;2023-04-01T22:00:28;3.65;;;1.30;;
65572;SDS011;52214;50.940;13.996;2023-04-01T22:03:27;3.70;;;1.50;;
65572;SDS011;52214;50.940;13.996;2023-04-01T22:06:14;4.57;;;1.38;;
65572;SDS011;52214;50.940;13.996;2023-04-01T22:08:52;4.25;;;1.50;;
65572;SDS011;52214;50.940;13.996;2023-04-01T22:30:40;3.07;;;1.13;;
65572;SDS011;52214;50.940;13.996;2023-04-01T22:38:37;3.55;;;1.30;;
65572;SDS011;52214;50.940;13.996;2023-04-01T22:41:38;3.47;;;1.35;;
65572;SDS011;52214;50.940;13.996;2023-04-01T22:44:20;3.93;;;1.40;;
65572;SDS011;52214;50.940;13.996;2023-04-01T22:57:56;3.60;;;1.20;;
65572;SDS011;52214;50.940;13.996;2023-04-01T23:00:28;4.25;;;1.63;;
65572;SDS011;52214;50.940;13.996;2023-04-01T23:11:23;4.37;;;1.20;;
65572;SDS011;52214;50.940;13.996;2023-04-01T23:14:02;4.00;;;1.50;;
65572;SDS011;52214;50.940;13.996;2023-04-01T23:25:12;3.57;;;1.20;;
65572;SDS011;52214;50.940;13.996;2023-04-01T23:27:46;3.58;;;1.15;;
65572;SDS011;52214;50.940;13.996;2023-04-01T23:35:48;3.20;;;1.30;;
65572;SDS011;52214;50.940;13.996;2023-04-01T23:38:14;3.30;;;1.30;;
65572;SDS011;52214;50.940;13.996;2023-04-01T23:40:41;3.88;;;1.10;;
65572;SDS011;52214;50.940;13.996;2023-04-01T23:43:19;3.78;;;1.30;;
65572;SDS011;52214;50.940;13.996;2023-04-01T23:45:52;4.40;;;1.50;;
65572;SDS011;52214;50.940;13.996;2023-04-01T23:48:19;3.72;;;1.60;;
65572;SDS011;52214;50.940;13.996;2023-04-01T23:50:50;4.03;;;1.40;;
65572;SDS011;52214;50.940;13.996;2023-04-01T23:53:17;3.20;;;1.27;;
65572;SDS011;52214;50.940;13.996;2023-04-01T23:55:48;3.92;;;1.30;;
65572;SDS011;52214;50.940;13.996;2023-04-01T23:58:22;3.65;;;1.23;;
